KLSE/LSE METAR and TAF weather

Enter ICAO airport designator
Station Type Date Time Source
KLSE METAR 2019/10/23 01:53 UTC NOAA

KLSE 230153Z 28013G24KT 10SM OVC055 09/00 A2967 RMK AO2 PK WND 28026/0119 SLP051 T00940000


Station Type Date Time Source
KLSE Decoded METAR 2019/10/23 01:53 UTC NOAA

LA CROSSE MUNICIPAL AIRPORT , WI, United States (KLSE) 43-53N 091-15W 200M
Oct 22, 2019 - 09:53 PM EDT / 2019.10.23 0153 UTC
Wind: from the W (280 degrees) at 15 MPH (13 KT) gusting to 28 MPH (24 KT):0
Visibility: 10 mile(s):0
Sky conditions: overcast
Temperature: 48.9 F (9.4 C)
Dew Point: 32.0 F (0.0 C)
Relative Humidity: 51%
Pressure (altimeter): 29.67 in. Hg (1004 hPa)
ob: KLSE 230153Z 28013G24KT 10SM OVC055 09/00 A2967 RMK AO2 PK WND 28026/0119 SLP051 T00940000
cycle: 2

Station Type Date Time Source
KLSE TAF 2019/10/22 22:12 UTC NOAA

TAF
AMD KLSE 222208Z 2222/2318 27019G30KT P6SM OVC035
FM230300 27010KT P6SM BKN040
FM230900 27010KT P6SM SCT100

Example: see airport list